PST,Max TemperatureF,Mean TemperatureF,Min TemperatureF,Max Dew PointF,MeanDew PointF,Min DewpointF,Max Humidity, Mean Humidity, Min Humidity, Max Sea Level PressureIn, Mean Sea Level PressureIn, Min Sea Level PressureIn, Max VisibilityMiles, Mean VisibilityMiles, Min VisibilityMiles, Max Wind SpeedMPH, Mean Wind SpeedMPH, Max Gust SpeedMPH,PrecipitationIn, CloudCover, Events, WindDirDegrees
2011-11-1,75,64,53,50,28,17,69,41,13,30.09,30.02,29.97,10,10,9,29,10,35,0.00,0,,322
2011-11-2,74,58,42,36,27,21,49,33,17,30.15,30.08,30.01,10,9,7,12,4,15,0.00,0,,186
2011-11-3,69,56,43,48,37,28,62,45,27,30.01,29.87,29.79,10,10,6,26,10,31,0.01,1,,220
2011-11-4,59,49,39,42,38,34,93,67,40,29.91,29.86,29.82,10,10,10,17,6,22,0.00,1,,288
2011-11-5,57,47,36,46,38,31,82,65,47,30.03,29.96,29.90,10,10,6,12,6,15,T,5,Rain,135
2011-11-6,58,52,46,46,43,40,93,72,51,30.12,30.00,29.93,10,10,7,22,10,26,0.03,5,Rain,155
2011-11-7,60,50,40,44,40,37,100,78,55,30.26,30.21,30.14,10,9,5,16,6,20,0.00,0,,324
2011-11-8,62,49,35,43,39,34,100,73,46,30.33,30.29,30.25,10,8,5,9,2,20,T,0,,3
2011-11-9,64,49,34,45,38,34,100,69,37,30.31,30.25,30.16,9,4,0,8,1,12,0.00,0,Fog,126
2011-11-10,70,51,32,42,37,33,100,63,26,30.18,30.06,29.91,9,6,3,12,1,15,0.00,0,,187
2011-11-11,57,50,42,49,44,37,92,76,59,29.89,29.81,29.73,10,7,2,113,4,127,0.04,4,Rain,136
2011-11-12,63,54,44,52,47,45,100,80,60,29.96,29.87,29.81,10,5,0,12,5,14,0.05,2,Fog-Rain,306
2011-11-13,67,55,43,50,46,43,100,76,52,29.99,29.96,29.92,10,7,2,12,2,18,0.00,1,,288
2011-11-14,61,53,44,49,46,43,100,82,64,30.06,30.00,29.96,10,8,3,14,4,18,0.00,1,,292
2011-11-15,68,53,38,49,42,37,100,74,48,30.17,30.11,30.06,10,6,0,14,3,17,0.00,0,Fog,312
2011-11-16,70,54,38,45,42,37,100,70,40,30.23,30.18,30.13,10,10,7,8,2,13,0.00,0,,344
2011-11-17,68,53,38,50,45,36,93,73,52,30.19,30.10,30.03,10,9,5,17,5,20,0.00,1,,264
2011-11-18,59,53,47,49,44,40,89,70,51,30.05,29.99,29.94,10,10,10,21,10,25,0.01,5,Rain,249
2011-11-19,58,47,36,44,37,31,100,68,36,29.98,29.89,29.77,10,10,6,14,4,16,0.00,2,Rain,135
2011-11-20,59,53,46,47,45,44,93,78,62,30.03,29.86,29.73,10,10,6,21,11,26,0.22,6,Rain,129
2011-11-21,58,49,39,47,43,39,100,84,67,30.27,30.17,30.04,10,5,0,10,1,12,0.00,3,Fog,135
2011-11-22,60,50,39,48,43,39,100,77,53,30.30,30.22,30.09,10,4,0,10,4,14,0.00,1,Fog,129
2011-11-23,58,49,40,47,43,39,100,81,62,30.08,29.95,29.85,8,4,0,10,4,13,0.00,0,Fog,129
2011-11-24,58,52,46,50,46,43,93,83,72,30.23,30.05,29.86,10,7,2,12,5,16,T,6,Rain,222
2011-11-25,59,50,40,52,46,41,100,84,67,30.38,30.31,30.23,10,9,5,16,5,18,0.00,3,,314
2011-11-26,57,49,40,49,45,39,100,89,77,30.42,30.37,30.32,8,2,0,10,3,13,0.00,3,Fog,122
2011-11-27,51,47,42,49,46,43,100,97,93,30.37,30.32,30.28,2,1,0,6,1,6,0.00,8,Fog,303
2011-11-28,54,50,46,48,45,39,100,92,83,30.30,30.26,30.20,7,2,0,8,2,9,0.00,5,Fog,340
2011-11-29,49,44,39,48,46,40,100,100,100,30.27,30.22,30.18,3,1,0,9,3,12,0.01,8,Fog,107
2011-11-30,64,55,45,45,39,25,93,62,30,30.21,30.17,30.07,10,6,2,40,9,52,0.00,5,,333